CYVK1: Verdigris River, Coyville, KS

                                SHEF ID:       CYVK1     VERDIGRIS R NR COYVILLE, KS
STATION TYPE:
Regulating: Stage = 26.00, Flow = 10360

PRECIP STAGE RIV-FLOW VOLTAGE BAT-LOAD
in ft cfs volt volt
Ccp-Rev Ccp-Rev Ccp-Rev Ccp-Rev Ccp-Rev
(America/Chicago)
02/26 00:00 0.00 3.64 282 12.79 12.53
02/26 01:00 0.00 3.65 283 12.77 12.50
02/26 02:00 0.00 3.64 282 12.76 12.48
02/26 03:00 0.00 3.64 282 12.73 12.46
02/26 04:00 0.00 3.64 282 12.70 12.44
02/26 05:00 0.00 3.65 283 12.69 12.42
02/26 06:00 0.00 3.64 282 12.67 12.40
02/26 07:00 0.00 3.64 282 12.65 12.37
02/26 08:00 0.00 3.65 283 12.73 12.39
02/26 09:00 0.00 3.64 282 12.90 12.58
02/26 10:00 0.00 3.64 282 13.17 12.73
02/26 11:00 0.00 3.63 280 14.27 12.94
02/26 12:00 0.00 3.63 280 14.08 13.58
02/26 13:00 0.00 3.65 283 13.97 13.32
02/26 14:00 0.00 3.64 282 13.51 13.09
02/26 15:00 0.00 3.61 278 13.48 12.99
02/26 16:00 0.00 3.12 220 13.57 12.94
02/26 17:00 0.00 2.62 152 13.54 12.94
02/26 18:00 0.00 2.40 123 13.08 12.90
02/26 19:00 0.00 2.32 110 12.93 12.70
02/26 20:00 0.00 2.29 104 12.87 12.61
02/26 21:00 0.00 2.28 102 12.83 12.57
02/26 22:00 0.00 2.28 102 12.81 12.54
02/26 23:00 0.00 2.28 102 12.78 12.52
Data processed at Fri 27Feb2026 05:42 GMT

NOTICE: If you are parsing this page

Please convert to using our Data API. Starting early 2026 we will be migrating to: https://water.usace.army.mil with modern pages rendered in JavaScript. When this migration completes you will no longer be able to scrape this page! CWMSDataAPI (CDA)

Timeseries IDs (TSIDs)

TSIDs used from left to right in the data table
COYV.Precip-Inc.Total.1Hour.1Hour.Ccp-Rev
COYV.Stage.Inst.1Hour.0.Ccp-Rev
COYV.Flow.Inst.1Hour.0.Ccp-Rev
COYV.Volt-Battery.Inst.1Hour.0.Ccp-Rev
COYV.Volt-Battery Load.Inst.1Hour.0.Ccp-Rev

                            

All information presented herein is the property of the government of the United States of America and may be revised or deleted at any time without prior notice. Dissemination of this information without the expressed written consent of the Public Affairs Office, Tulsa District U.S. Army Corps of Engineers is strictly prohibited. These data are gathered electronically and, as presented, have NOT undergone any form of quality control. These data are NOT guaranteed to be valid or correct.